Tiempo atmosférico en la estación meteorológica de Águilas, Murcia (26 m.)



Fecha
DESCASC
Temp. máxima en grados centígrados (hora)
DESCASC
Temp. mínima en grados centígrados (hora)
DESCASC
Temp. media en grados centígrados
DESCASC
Racha de viento máxima en m/sg (hora)
DESCASC
Velocidad máxima media en intervalos de 10 minutos(hora)
DESCASC
Precipitaciones diarias en mm
DESCASC
Precipitaciones de 00:00 a 06:00 en mm
DESCASC
Precipitaciones de 06:00 a 12:00 en mm
DESCASC
Precipitaciones de 12:00 a 18:00 en mm
DESCASC
Precipitaciones de 18:00 a 24:00 en mm
DESCASC
25-04-2019 25.6 (15:30) 12.4 (06:50) 19 15 (13:10) 7.5 (14:00) 0 0 0 0 0
24-04-2019 20 (17:20) 10.8 (07:40) 15.4 14.17 (18:00) 7.5 (00:10) 0 0 0 0 0
23-04-2019 21.3 (12:30) 13.6 (08:20) 17.4 15.28 (22:40) 8.61 (22:40) 0.8 0 0 0.8 0
22-04-2019 21.6 (14:30) 13.8 (00:00) 17.7 12.22 (01:20) 6.39 (01:10) 0 0 0 0 0
21-04-2019 17.3 (13:50) 14.4 (00:00) 15.8 11.39 (00:10) 5 (00:10) 1.2 0 0 1.2 0
20-04-2019 19.5 (14:20) 12.4 (00:00) 15.9 16.11 (19:30) 7.78 (19:30) 27 20.8 6 0.2 0
19-04-2019 16.7 (19:30) 13.3 (00:00) 15 6.67 (09:30) 3.61 (09:30) 5.6 0 4.6 0.6 0.4
18-04-2019 18.7 (10:10) 14.4 (00:00) 16.6 10.83 (14:40) 5.83 (14:20) 0.8 0 0 0.8 0
17-04-2019 22.1 (17:10) 13.3 (00:00) 17.7 11.39 (16:40) 7.5 (18:10) 0 0 0 0 0
16-04-2019 22.2 (15:40) 13.2 (00:00) 17.7 10 (18:40) 5.83 (18:50) 0 0 0 0 0
15-04-2019 -- (--) -- (--) -- -- (--) -- (--) -- 0 -- -- 0
14-04-2019 23 (16:50) 12.1 (00:00) 17.6 5.56 (14:10) 3.33 (19:40) 0 0 0 0 0
13-04-2019 25.1 (12:10) 11.4 (00:00) 18.3 9.44 (11:50) 4.44 (17:00) 0 0 0 0 0
12-04-2019 21.6 (11:10) 11.7 (00:00) 16.7 9.17 (15:10) 4.72 (15:40) 0 0 0 0 0
11-04-2019 23 (13:20) 12.4 (00:00) 17.7 10.56 (07:30) 6.11 (07:40) 0 0 0 0 0
10-04-2019 23.9 (14:30) 12.5 (00:00) 18.2 12.78 (11:50) 6.94 (11:20) 0 0 0 0 0
09-04-2019 23.1 (14:10) 14 (00:00) 18.6 16.11 (18:20) 8.61 (10:30) 0 0 0 0 0
08-04-2019 22.8 (12:30) 13.8 (00:00) 18.3 12.22 (11:30) 6.67 (23:59) 0 0 0 0 0
07-04-2019 23.4 (16:00) 10.1 (00:00) 16.8 16.94 (15:20) 8.33 (12:10) 0 0 0 0 0
06-04-2019 21.5 (13:30) 10.4 (00:00) 15.9 14.44 (19:10) 8.06 (12:40) 4 0 0 0.6 3.4
05-04-2019 19.1 (13:40) 10.7 (00:00) 14.9 19.72 (14:10) 9.17 (16:50) 0.2 0 0 0.2 0
04-04-2019 17.6 (14:00) 12.6 (00:00) 15.1 10.83 (05:00) 5.56 (05:00) 0 0 0 0 0
03-04-2019 20.7 (15:30) 10.9 (00:00) 15.8 7.22 (13:40) 4.17 (14:00) 0 0 0 0 0
02-04-2019 19.3 (14:50) 12.6 (00:00) 15.9 5.83 (01:10) 3.61 (01:10) 0.4 0.4 0 0 0
01-04-2019 18.5 (17:00) 13.6 (00:00) 16.1 6.11 (15:10) 3.89 (21:40) 0 0 0 0 0
31-03-2019 15.5 (15:40) 11.6 (00:00) 13.6 10.28 (15:00) 5.56 (15:00) 9.2 3.8 4.6 0.2 0.6
30-03-2019 19.3 (14:30) 10.1 (00:00) 14.7 11.94 (15:50) 7.78 (16:20) 0 0 0 0 0
29-03-2019 18.8 (11:40) 10.9 (00:00) 14.8 12.5 (14:20) 7.5 (15:00) 0 0 0 0 0
28-03-2019 19.4 (11:20) 8.9 (00:00) 14.1 11.11 (15:10) 6.67 (15:00) 0 0 0 0 0
27-03-2019 19.3 (14:10) 11.2 (00:00) 15.2 13.61 (12:40) 7.78 (13:40) 0 0 0 0 0

Gráficas

Temp. máximas Temp. mínimas Temp. medias Precipitaciones Rachas de viento máximas Velocidades máximas media en intervalos de 10 minutos

Datos horarios

Fecha y hora oficial Temperatura (ºC) Velocidad del viento (km/h) Dirección del viento Racha (km/h) Dirección de racha Precipitación (mm) Presión (hPa) Tendencia (hPa) Humedad (%)
2019-04-25 23:00:00 19.8 14 Noroeste 26 Noroeste 0 1013.6 3.3 30
2019-04-25 22:00:00 20.7 9 Noroeste 36 Oeste 0 1012.5 2.6 29
2019-04-25 21:00:00 21.7 21 Oeste 43 Oeste 0 1011.2 1.8 26
2019-04-25 20:00:00 19.5 10 Sudoeste 24 Oeste 0 1010.3 1.4 59
2019-04-25 19:00:00 20 12 Sudoeste 34 Sudoeste 0 1009.9 0.9 60
2019-04-25 18:00:00 22.2 16 Sudoeste 35 Sur 0 1009.4 0.8 53
2019-04-25 17:00:00 22.7 17 Sudoeste 39 Sur 0 1008.9 -0.4 50
2019-04-25 16:00:00 22.2 18 Sudoeste 35 Sudoeste 0 1009 -0.3 51
2019-04-25 15:00:00 22.3 23 Sudoeste 45 Sudoeste 0 1008.6 -1 51
2019-04-25 14:00:00 20.5 27 Sudoeste 54 Sudoeste 0 1009.3 -0.3 57
2019-04-25 13:00:00 20.8 23 Sudoeste 51 Sudoeste 0 1009.3 -0.1 54
2019-04-25 12:00:00 21.1 18 Sudoeste 41 Sudoeste 0 1009.6 0.3 53
2019-04-25 11:00:00 20 13 Sudoeste 33 Sudoeste 0 1009.6 1 58
2019-04-25 10:00:00 18.7 11 Oeste 25 Oeste 0 1009.4 1.1 61
2019-04-25 09:00:00 16.9 4 Oeste 10 Nordeste 0 1009.3 1.4 61
2019-04-25 08:00:00 14.3 5 Norte 12 Norte 0 1008.6 0.8 65
2019-04-25 07:00:00 12.8 4 Nordeste 7 Sudoeste 0 1008.3 0.2 71
2019-04-25 06:00:00 13.4 4 Norte 12 Nordeste 0 1007.9 -0.5 68
2019-04-25 05:00:00 14.2 3 Este 8 Sudeste 0 1007.8 -1 65
2019-04-25 04:00:00 14.5 6 Nordeste 10 Nordeste 0 1008.1 -0.7 66
2019-04-25 03:00:00 14.5 2 Sur 15 Norte 0 1008.4 -0.3 68
2019-04-25 02:00:00 15.2 4 Este 13 Sudeste 0 1008.8 0.3 66
2019-04-25 01:00:00 14.5 5 Este 8 Norte 0 1008.8 1 71
2019-04-25 00:00:00 15 3 Norte 8 Norte 0 1008.7 1.3 70
2019-04-24 23:00:00 15.6 4 Este 10 Este 0 1008.5 1.4 69
2019-04-24 22:00:00 16.5 3 Nordeste 7 Este 0 1007.8 1.2 66
2019-04-24 21:00:00 16.8 3 Oeste 28 Sudoeste 0 1007.4 0.9 65
2019-04-24 20:00:00 17.9 15 Sudoeste 37 Sudoeste 0 1007.1 0.5 60
2019-04-24 19:00:00 18.6 22 Sudoeste 46 Sudoeste 0 1006.6 -0.6 55
2019-04-24 18:00:00 19.1 24 Sudoeste 51 Sur 0 1006.5 -1.2 51
2019-04-24 17:00:00 19.5 22 Sudoeste 45 Sudoeste 0 1006.6 -1.4 50
2019-04-24 16:00:00 19.7 21 Sudoeste 46 Sudoeste 0 1007.2 -1.5 50
2019-04-24 15:00:00 19.8 21 Sudoeste 42 Sudoeste 0 1007.7 -1.3 48
2019-04-24 14:00:00 19.2 21 Sudoeste 44 Sudoeste 0 1008 -0.7 46
2019-04-24 13:00:00 18.5 14 Sur 25 Sur 0 1008.7 0.6 44
2019-04-24 12:00:00 17.6 11 Sur 24 Sur 0 1009 1.7 41
2019-04-24 11:00:00 17 12 Sur 21 Sur 0 1008.7 2 43
2019-04-24 10:00:00 17.2 4 Oeste 8 Oeste 0 1008.1 2 32
2019-04-24 09:00:00 14.7 4 Norte 10 Norte 0 1007.3 2.1 39
2019-04-24 08:00:00 11.8 6 Norte 12 Oeste 0 1006.7 2 51
2019-04-24 07:00:00 11.1 4 Sur 12 Noroeste 0 1006.1 2.1 52
2019-04-24 06:00:00 13 10 Noroeste 29 Noroeste 0 1005.2 1.6 43
2019-04-24 05:00:00 13.6 18 Noroeste 31 Noroeste 0 1004.7 0.9 40
2019-04-24 04:00:00 13 16 Noroeste 26 Noroeste 0 1004 0.7 43
2019-04-24 03:00:00 12.3 8 Oeste 20 Noroeste 0 1003.6 1 48
2019-04-24 02:00:00 14.1 11 Noroeste 44 Noroeste 0 1003.8 2 41
2019-04-24 01:00:00 14.8 21 Noroeste 46 Oeste 0 1003.3 2.9 39
2019-04-24 00:00:00 15 22 Oeste 48 Noroeste 0 1002.6 3.6 36
2019-04-23 23:00:00 16 26 Noroeste 55 Noroeste 0 1001.8 3.9 33
2019-04-23 22:00:00 16.6 20 Noroeste 47 Noroeste 0 1000.4 3.1 32
2019-04-23 21:00:00 16.1 12 Oeste 29 Sudoeste 0 999 1.5 47
2019-04-23 20:00:00 16.9 9 Sudoeste 35 Sudoeste 0 997.9 0 58
2019-04-23 19:00:00 17.1 17 Sudoeste 45 Sudoeste 0 997.3 -0.5 59
2019-04-23 18:00:00 16.4 13 Sudoeste 36 Sur 0.4 997.5 0 67
2019-04-23 17:00:00 17.6 14 Sudoeste 32 Sudoeste 0 997.9 1.3 62
2019-04-23 16:00:00 17.1 14 Sudoeste 36 Sudoeste 0 997.8 1.4 66
2019-04-23 15:00:00 16.9 13 Oeste 43 Sudoeste 0.4 997.5 1 65
2019-04-23 14:00:00 19.3 14 Sudoeste 37 Sudoeste 0 996.6 0.3 51
2019-04-23 13:00:00 20 10 Sudoeste 47 Oeste 0 996.4 0.3 45
2019-04-23 12:00:00 20 10 Sudoeste 29 Oeste 0 996.5 0.6 48
2019-04-23 11:00:00 19.5 10 Sur 18 Sudoeste 0 996.3 0.9 53
2019-04-23 10:00:00 20 4 Sudoeste 19 Oeste 0 996.1 0.6 40
2019-04-23 09:00:00 16.3 5 Sudoeste 12 Sudoeste 0 995.9 0.4 55
2019-04-23 08:00:00 13.9 0 Calma 10 Nordeste 0 995.4 -0.6 66
2019-04-23 07:00:00 14.6 4 Nordeste 13 Sur 0 995.5 -0.5 69
2019-04-23 06:00:00 14.4 6 Nordeste 9 Norte 0 995.5 -1 70
2019-04-23 05:00:00 15 2 Norte 10 Sur 0 996 -1.4 72
2019-04-23 04:00:00 16.5 5 Oeste 22 Norte 0 996 -1.6 53
2019-04-23 03:00:00 14.5 4 Noroeste 14 Noroeste 0 996.5 -1.5 73
2019-04-23 02:00:00 14.8 0 Calma 9 Norte 0 997.4 -0.8 71
2019-04-23 01:00:00 14.1 3 Noroeste 6 Norte 0 997.6 -0.5 75
2019-04-23 00:00:00 13.8 2 Noroeste 7 Noroeste 0 998 0.1 76
2019-04-22 23:00:00 14.6 2 Norte 11 Nordeste 0 998.2 0.2 74
2019-04-22 22:00:00 15.9 5 Nordeste 12 Nordeste 0 998.1 0.2 70
2019-04-22 21:00:00 17 4 Sur 9 Sudeste 0 997.9 -0.1 64
2019-04-22 20:00:00 17.5 5 Sudoeste 15 Sudoeste 0 998 0 60
2019-04-22 19:00:00 17.4 3 Sur 13 Sudoeste 0 997.9 -0.1 63
2019-04-22 18:00:00 17.2 8 Sudoeste 22 Sudoeste 0 998 0 64
2019-04-22 17:00:00 18.4 12 Sudoeste 28 Sudoeste 0 998 -0.1 58
2019-04-22 16:00:00 18.9 12 Sudoeste 29 Sudoeste 0 998 -0.7 57
2019-04-22 15:00:00 19.1 9 Sur 23 Sudoeste 0 998 -1 45
2019-04-22 14:00:00 20.7 6 Sur 24 Norte 0 998.1 -1 37
2019-04-22 13:00:00 18.8 10 Noroeste 35 Norte 0 998.7 -0.1 44
2019-04-22 12:00:00 17.5 17 Norte 30 Norte 0 999 0.2 47
2019-04-22 11:00:00 16.7 8 Norte 17 Noroeste 0 999.1 0.6 52
2019-04-22 10:00:00 16 9 Noroeste 21 Noroeste 0 998.8 0.6 55
2019-04-22 09:00:00 14.9 8 Noroeste 24 Noroeste 0 998.8 0.3 59
2019-04-22 08:00:00 14.4 8 Noroeste 28 Norte 0 998.5 -0.5 61
2019-04-22 07:00:00 14.3 13 Noroeste 27 Noroeste 0 998.2 -1 59
2019-04-22 06:00:00 14.1 10 Norte 19 Norte 0 998.5 -0.9 61
2019-04-22 05:00:00 14.3 10 Norte 24 Nordeste 0 999 -1 57
2019-04-22 04:00:00 14.1 8 Norte 35 Norte 0 999.2 -1.2 58
2019-04-22 03:00:00 14.2 16 Norte 44 Norte 0 999.4 -1.7 58
2019-04-22 02:00:00 14.4 19 Noroeste 44 Norte 0 1000 -1.6 58
2019-04-22 01:00:00 14.6 22 Norte 42 Noroeste 0 1000.4 -1.3 60
2019-04-22 00:00:00 14.7 4 Noroeste 29 Norte 0 1001.1 -0.4 60
2019-04-21 23:00:00 15.2 9 Norte 28 Noroeste 0 1001.6 0 59
2019-04-21 22:00:00 15.2 6 Norte 18 Noroeste 0 1001.7 -0.2 60
2019-04-21 21:00:00 15.3 2 Norte 27 Norte 0 1001.5 -0.3 65
2019-04-21 20:00:00 15.4 8 Norte 21 Norte 0 1001.6 -0.4 67
2019-04-21 19:00:00 15.8 10 Noroeste 22 Noroeste 0 1001.9 -0.5 66
2019-04-21 18:00:00 15.6 7 Norte 19 Norte 0.4 1001.8 -0.9 69
2019-04-21 17:00:00 15.1 6 Norte 22 Noroeste 0.6 1002 -1 67
2019-04-21 16:00:00 15.7 13 Norte 32 Norte 0 1002.4 -1.3 65
2019-04-21 15:00:00 15.5 10 Norte 23 Norte 0.2 1002.7 -1.4 66
2019-04-21 14:00:00 17.2 13 Norte 24 Norte 0 1003 -1.4 54
2019-04-21 13:00:00 16.8 6 Oeste 15 Noroeste 0 1003.7 -0.8 55
2019-04-21 12:00:00 16.3 4 Sudeste 17 Noroeste 0 1004.1 -1 57
2019-04-21 11:00:00 15.8 6 Noroeste 14 Noroeste 0 1004.4 -0.6 61
2019-04-21 10:00:00 14.6 2 Norte 14 Noroeste 0 1004.5 -0.5 64
2019-04-21 09:00:00 15.2 2 Este 21 Nordeste 0 1005.1 -0.3 60
2019-04-21 08:00:00 15.5 9 Nordeste 23 Nordeste 0 1005 -0.9 55
2019-04-21 07:00:00 15.6 13 Nordeste 28 Nordeste 0 1005 -1.7 54
2019-04-21 06:00:00 15.5 8 Este 24 Nordeste 0 1005.4 -2 60
2019-04-21 05:00:00 15.7 12 Nordeste 26 Nordeste 0 1005.9 -2.3 59
2019-04-21 04:00:00 15.7 9 Nordeste 18 Este 0 1006.7 -1.6 60
2019-04-21 03:00:00 16 9 Nordeste 22 Nordeste 0 1007.4 -1.3 60
2019-04-21 02:00:00 15.7 7 Este 14 Este 0 1008.2 -1.1 65
2019-04-21 01:00:00 15.9 2 Sudoeste 41 Nordeste 0 1008.3 -1.2 63
2019-04-21 00:00:00 16 17 Nordeste 49 Nordeste 0 1008.7 -0.4 62
2019-04-20 23:00:00 16 24 Nordeste 41 Este 0 1009.3 0.7 63
2019-04-20 22:00:00 16.1 16 Este 42 Este 0 1009.5 0.7 64
2019-04-20 21:00:00 16 13 Este 47 Nordeste 0 1009.1 0.6 65
2019-04-20 20:00:00 15.8 26 Este 58 Este 0 1008.6 0.2 66
2019-04-20 19:00:00 15.4 23 Este 48 Nordeste 0 1008.8 0.4 71
2019-04-20 18:00:00 15.1 19 Este 48 Este 0.2 1008.5 0.4 79
2019-04-20 17:00:00 17.1 22 Nordeste 41 Este 0 1008.4 0.6 64
2019-04-20 16:00:00 17.5 22 Nordeste 37 Nordeste 0 1008.4 -0.3 63
2019-04-20 15:00:00 18.2 10 Sudeste 20 Este 0 1008.1 -0.7 57
2019-04-20 14:00:00 18.9 11 Sur 18 Sur 0 1007.8 -0.9 56
2019-04-20 13:00:00 18.4 11 Sur 19 Sudoeste 0 1008.7 0.1 61
2019-04-20 12:00:00 17.2 12 Sur 19 Sur 0 1008.8 1.1 64
2019-04-20 11:00:00 16.6 7 Oeste 19 Sudoeste 0 1008.7 2.6 73
2019-04-20 10:00:00 14.3 8 Sudoeste 18 Sudeste 0 1008.6 3.1 81
2019-04-20 09:00:00 14 10 Sudeste 24 Sudeste 0 1007.7 1.6 85
2019-04-20 08:00:00 12.6 9 Sur 19 Sur 1 1006.1 -1.2 88
2019-04-20 07:00:00 12.5 7 Oeste 21 Sudoeste 5 1005.5 -2.3 88
2019-04-20 06:00:00 12.5 10 Oeste 20 Oeste 5.2 1006.1 -2.9 87
2019-04-20 05:00:00 12.6 5 Sudoeste 24 Noroeste 5.2 1007.3 -3.1 86
2019-04-20 04:00:00 12.6 8 Oeste 23 Noroeste 5.2 1007.8 -3.2 83
2019-04-20 03:00:00 12.9 9 Noroeste 19 Noroeste 2.4 1009 -2.9 79
2019-04-20 02:00:00 13 5 Sudoeste 18 Norte 1.4 1010.4 -1.6 80
2019-04-20 01:00:00 13.3 3 Norte 12 Norte 1.4 1011 -1.3 83
2019-04-20 00:00:00 14 7 Nordeste 12 Este 0.4 1011.9 0.9 80
2019-04-19 23:00:00 13.9 4 Noroeste 8 Noroeste 0 1012 0.8 78
2019-04-19 22:00:00 14.3 0 Calma 9 Oeste 0 1012.3 0.8 73
2019-04-19 21:00:00 14.9 3 Oeste 9 Sudoeste 0 1011 -0.2 69
2019-04-19 20:00:00 16.6 3 Sur 12 Este 0 1011.2 0.3 62
2019-04-19 19:00:00 16.1 7 Sur 17 Sudeste 0 1011.5 0.4 65
2019-04-19 18:00:00 16.5 9 Sur 17 Sudeste 0 1011.2 -0.4 66
2019-04-19 17:00:00 15.7 4 Sur 9 Sudoeste 0 1010.9 -1.1 65
2019-04-19 16:00:00 15.5 7 Sur 13 Sur 0 1011.1 -1.4 65
2019-04-19 15:00:00 14.9 3 Oeste 7 Este 0 1011.6 -1.2 69
2019-04-19 14:00:00 14.1 2 Sudeste 6 Nordeste 0 1012 0.1 76
2019-04-19 13:00:00 13.7 3 Noroeste 8 Nordeste 0.6 1012.5 0.7 78
2019-04-19 12:00:00 13.4 4 Este 12 Este 1.4 1012.8 1.8 83
2019-04-19 11:00:00 13.4 8 Este 19 Este 1.8 1011.9 1.4 85
2019-04-19 10:00:00 13.5 12 Este 24 Este 0.8 1011.8 1.9 84
2019-04-19 09:00:00 14.5 5 Nordeste 12 Sudeste 0.6 1011 1.1 80
2019-04-19 08:00:00 14.4 4 Este 10 Este 0 1010.5 0.5 76
2019-04-19 07:00:00 14.6 4 Nordeste 8 Sudeste 0 1009.9 -0.1 73
2019-04-19 06:00:00 14.7 5 Norte 10 Nordeste 0 1009.9 -0.4 72
2019-04-19 05:00:00 14.8 3 Noroeste 9 Noroeste 0 1010 -0.7 73
2019-04-19 04:00:00 15.1 2 Sudoeste 9 Oeste 0 1010 -0.3 77
2019-04-19 03:00:00 15.1 5 Noroeste 7 Oeste 0 1010.3 0.4 75
2019-04-19 02:00:00 15.4 2 Nordeste 8 Este 0 1010.7 0.9 77
2019-04-19 01:00:00 15.2 4 Nordeste 11 Este 0 1010.3 0.8 76
2019-04-19 00:00:00 15.4 6 Nordeste 10 Nordeste 0 1009.9 1.1 76
2019-04-18 23:00:00 15.8 3 Norte 12 Sur 0 1009.8 1.5 76
2019-04-18 22:00:00 15.9 6 Sur 15 Sur 0 1009.5 0.9 78
2019-04-18 21:00:00 15.6 7 Sudeste 15 Sur 0 1008.8 0.6 74
2019-04-18 20:00:00 16 6 Sur 17 Sur 0 1008.3 1.2 71
2019-04-18 19:00:00 16.5 8 Sudoeste 18 Sudoeste 0 1008.6 -0.2 67
2019-04-18 18:00:00 15.7 7 Sudoeste 18 Oeste 0 1008.2 -1.4 71
2019-04-18 17:00:00 15.9 10 Este 25 Este 0.2 1007.1 -1.9 69
2019-04-18 16:00:00 15.4 7 Norte 26 Noroeste 0.6 1008.8 -0.6 69
2019-04-18 15:00:00 14.5 20 Noroeste 39 Noroeste 0 1009.6 0.3 73
2019-04-18 14:00:00 18.3 19 Noroeste 31 Noroeste 0 1009 0.2 44
2019-04-18 13:00:00 17.5 6 Sudoeste 18 Sudoeste 0 1009.4 0.4 66
2019-04-18 12:00:00 17.8 8 Sudoeste 19 Sudoeste 0 1009.3 0 69
2019-04-18 11:00:00 18.3 6 Sudoeste 14 Sur 0 1008.8 0.2 62
2019-04-18 10:00:00 18.5 5 Sur 11 Sur 0 1009 0.7 58
2019-04-18 09:00:00 16.2 5 Noroeste 8 Noroeste 0 1009.3 0.9 62
2019-04-18 08:00:00 15.3 5 Noroeste 9 Noroeste 0 1008.6 0.4 65
2019-04-18 07:00:00 15.6 3 Noroeste 9 Nordeste 0 1008.3 0.2 59
2019-04-18 06:00:00 16.2 2 Noroeste 14 Sudoeste 0 1008.4 -0.4 59
2019-04-18 05:00:00 17.1 6 Sudoeste 20 Oeste 0 1008.2 -0.7 59
2019-04-18 04:00:00 17.4 9 Sur 25 Oeste 0 1008.1 -2.1 50
2019-04-18 03:00:00 17.2 6 Oeste 18 Oeste 0 1008.8 -1.6 48
2019-04-18 02:00:00 17.6 10 Este 19 Este 0 1008.9 -1.8 45
2019-04-18 01:00:00 17.4 10 Este 17 Nordeste 0 1010.2 1.5 49
2019-04-18 00:00:00 17.8 8 Nordeste 25 Norte 0 1010.4 2.3 47
2019-04-17 23:00:00 17.4 5 Sur 26 Este 0 1010.7 2.9 55
2019-04-17 22:00:00 17.7 17 Este 26 Este 0 1008.7 0.3 52
2019-04-17 21:00:00 18.7 13 Este 24 Este 0 1008.1 -0.5 49
2019-04-17 20:00:00 20 13 Este 33 Este 0 1007.8 -1.4 46
2019-04-17 19:00:00 20.1 21 Este 40 Este 0 1008.4 -2 51
2019-04-17 18:00:00 21.2 23 Este 39 Este 0 1008.6 -2.5 48
2019-04-17 17:00:00 21.9 19 Este 41 Este 0 1009.2 -2.6 47
2019-04-17 16:00:00 21 16 Este 32 Sudeste 0 1010.4 -2.4 50
2019-04-17 15:00:00 21.2 19 Sudeste 31 Sudeste 0 1011.1 -2.2 49
2019-04-17 14:00:00 21.5 17 Sudeste 31 Este 0 1011.8 -1.5 48
2019-04-17 13:00:00 19.2 18 Sudeste 36 Sudeste 0 1012.8 -0.7 56
2019-04-17 12:00:00 20.3 24 Sudeste 39 Sudeste 0 1013.3 -0.6 47
2019-04-17 11:00:00 20.7 14 Este 26 Sudeste 0 1013.3 -0.7 44
2019-04-17 10:00:00 19.4 9 Este 16 Este 0 1013.5 -0.2 49
2019-04-17 09:00:00 16.1 4 Noroeste 8 Oeste 0 1013.9 0.4 65
2019-04-17 08:00:00 13.4 0 Calma 8 Nordeste 0 1014 0.2 72
2019-04-17 07:00:00 13.7 3 Norte 7 Nordeste 0 1013.7 -0.5 71
2019-04-17 06:00:00 13.3 0 Calma 6 Norte 0 1013.5 -1.1 72
2019-04-17 05:00:00 14.5 5 Nordeste 11 Norte 0 1013.8 -1.3 69
2019-04-17 04:00:00 14 5 Norte 10 Norte 0 1014.2 -1 71
2019-04-17 03:00:00 14.5 4 Norte 8 Norte 0 1014.6 -0.7 71
2019-04-17 02:00:00 15 3 Norte 9 Este 0 1015.1 -0.3 68
2019-04-17 01:00:00 15.6 4 Nordeste 9 Este 0 1015.2 0.4 68
2019-04-17 00:00:00 15.7 5 Sudeste 9 Norte 0 1015.3 1 70
2019-04-16 23:00:00 16.5 5 Norte 12 Este 0 1015.4 1.6 69
2019-04-16 22:00:00 16.8 8 Este 19 Este 0 1014.8 1.1 70
2019-04-16 21:00:00 17 12 Este 25 Este 0 1014.3 0.9 69
2019-04-16 20:00:00 18.1 18 Este 33 Sudeste 0 1013.8 0 67
2019-04-16 19:00:00 19.6 20 Este 36 Este 0 1013.7 -0.5 61
2019-04-16 18:00:00 21 19 Sudeste 28 Sudeste 0 1013.4 -1.3 43
2019-04-16 17:00:00 21.1 10 Sur 20 Sur 0 1013.8 -1.2 50
2019-04-16 16:00:00 21.7 10 Sur 19 Sudoeste 0 1014.2 -1.1 49
2019-04-16 15:00:00 21.2 10 Sur 21 Sur 0 1014.7 -0.9 46
2019-04-16 14:00:00 20.8 9 Sur 20 Sudoeste 0 1015 -0.5 55
2019-04-16 13:00:00 19.9 9 Sur 19 Sur 0 1015.3 0.2 56
2019-04-16 12:00:00 19.6 7 Sur 17 Sudoeste 0 1015.6 1.2 64
2019-04-16 11:00:00 19.3 5 Sudoeste 15 Sudoeste 0 1015.5 1 62
2019-04-16 10:00:00 19.3 6 Sur 11 Sur 0 1015.1 1.5 57
2019-04-16 09:00:00 17.2 2 Este 12 Nordeste 0 1014.4 1 61
2019-04-16 08:00:00 13.4 2 Noroeste 8 Sudeste 0 1014.5 1.8 67
2019-04-16 07:00:00 13.8 5 Norte 10 Norte 0 1013.6 1.3 66
2019-04-16 06:00:00 13.9 6 Nordeste 12 Este 0 1013.4 1 68
2019-04-16 05:00:00 13.6 0 Calma 11 Nordeste 0 1012.7 0.1 69
2019-04-16 04:00:00 13.7 3 Norte 8 Nordeste 0 1012.3 -0.1 67
2019-04-16 03:00:00 13.7 4 Nordeste 8 Norte 0 1012.4 -0.1 67
2019-04-16 02:00:00 14 2 Este 8 Noroeste 0 1012.6 0.6 67
2019-04-16 01:00:00 14.7 5 Este 7 Norte 0 1012.4 0.9 72
2019-04-16 00:00:00 15.3 0 Calma 8 Norte 0 1012.5 1.7 73
2019-04-15 23:00:00 15.9 2 Noroeste 6 Este 0 1012 1.8 75
2019-04-15 22:00:00 16.5 5 Este 8 Este 0 1011.5 1.6 74
2019-04-15 21:00:00 17 4 Este 12 Sudeste 0 1010.8 1.2 71
2019-04-15 20:00:00 18.3 8 Este 18 Sudeste 0 1010.2 0.5 67
2019-04-15 19:00:00 19.1 13 Sudeste 25 Sudeste 0 1009.9 -0.3 64
2019-04-15 18:00:00 20.7 16 Sudeste 26 Sudeste 0 1009.6 -1 52
2019-04-15 17:00:00 21.7 14 Sudeste 23 Sudeste 0 1009.7 -1 43
2019-04-15 16:00:00 21.3 13 Este 30 Sudeste 0 1010.2 -0.4 38
2019-04-15 15:00:00 20.6 18 Sudeste 30 Sudeste 0 1010.6 -- 51
2019-04-15 14:00:00 20 19 Sudeste 35 Sudeste 0 1010.7 -- 63
2019-04-15 13:00:00 22.6 12 Sudeste -- -- -- 1010.6 -- 42
2019-04-15 12:00:00 -- -- -- -- -- -- -- -- --
2019-04-15 11:00:00 -- -- -- -- -- -- -- -- --
2019-04-15 10:00:00 -- -- -- -- -- -- -- -- --
2019-04-15 09:00:00 -- -- -- -- -- -- -- -- --
2019-04-15 08:00:00 14.8 5 Nordeste 9 Nordeste 0 1010.3 0 64
2019-04-15 07:00:00 14.8 4 Este 7 Nordeste 0 1009.9 -0.7 63
2019-04-15 06:00:00 15.1 0 Calma 6 Norte 0 1010 -1.2 64
2019-04-15 05:00:00 15.3 0 Calma 9 Norte 0 1010.3 -1.3 67
2019-04-15 04:00:00 15.5 5 Noroeste 11 Noroeste 0 1010.6 -1.3 68
2019-04-15 03:00:00 15.9 3 Noroeste 6 Noroeste 0 1011.2 -0.9 67
2019-04-15 02:00:00 16.1 2 Este 5 Este 0 1011.6 -0.5 68
2019-04-15 01:00:00 15.9 0 Calma 6 Nordeste 0 1011.9 -0.2 69
2019-04-15 00:00:00 16.2 3 Este 6 Este 0 1012.1 0.8 69
2019-04-14 23:00:00 17 3 Nordeste 14 Este 0 1012.1 0.9 67
2019-04-14 22:00:00 17.5 6 Este 13 Sudeste 0 1012.1 1.1 64
2019-04-14 21:00:00 18 10 Este 16 Este 0 1011.3 0.1 61
2019-04-14 20:00:00 19.3 12 Sudeste 17 Sudeste 0 1011.2 -0.7 56
2019-04-14 19:00:00 20.8 6 Sudeste 13 Sudoeste 0 1011 -1.5 48
2019-04-14 18:00:00 21.4 8 Sur 19 Sudoeste 0 1011.2 -2 43
2019-04-14 17:00:00 22.3 8 Sur 19 Oeste 0 1011.9 -1.7 46
2019-04-14 16:00:00 22 5 Sudoeste 18 Sur 0 1012.5 -1.3 48
2019-04-14 15:00:00 22 8 Sudoeste 20 Sur 0 1013.2 -1.2 48
2019-04-14 14:00:00 21.1 10 Sur 18 Sur 0 1013.6 -0.7 55
2019-04-14 13:00:00 22 5 Sur 18 Sudoeste 0 1013.8 -0.2 40
2019-04-14 12:00:00 21.1 8 Sudoeste 18 Sur 0 1014.4 0.6 43
2019-04-14 11:00:00 21 7 Sur 13 Sudeste 0 1014.3 0.7 35
2019-04-14 10:00:00 19.5 4 Sudeste 11 Sudeste 0 1014 0.7 48
2019-04-14 09:00:00 17.4 4 Nordeste 10 Nordeste 0 1013.8 0.6 43
2019-04-14 08:00:00 12.9 7 Nordeste 11 Nordeste 0 1013.6 0.3 54
2019-04-14 07:00:00 13.2 3 Nordeste 10 Noroeste 0 1013.3 -0.2 50
2019-04-14 06:00:00 13.6 6 Noroeste 9 Noroeste 0 1013.2 -0.9 46
2019-04-14 05:00:00 13.5 3 Oeste 9 Norte 0 1013.3 -1.3 49
2019-04-14 04:00:00 13.8 5 Noroeste 9 Noroeste 0 1013.5 -1.2 46
2019-04-14 03:00:00 14 2 Sudoeste 6 Norte 0 1014.1 -0.7 48
2019-04-14 02:00:00 14.7 4 Noroeste 10 Nordeste 0 1014.6 0 45
2019-04-14 01:00:00 15 2 Noroeste 7 Nordeste 0 1014.7 0.4 47
2019-04-14 00:00:00 16.5 5 Nordeste 10 Nordeste 0 1014.8 1.3 49
2019-04-13 23:00:00 17.2 5 Este 9 Nordeste 0 1014.6 1.4 51
2019-04-13 22:00:00 17.7 5 Sudeste 12 Oeste 0 1014.3 1.3 49
2019-04-13 21:00:00 18.5 4 Oeste 20 Oeste 0 1013.5 0.4 48
2019-04-13 20:00:00 19.3 5 Sudoeste 21 Sur 0 1013.2 -0.1 52
2019-04-13 19:00:00 20.4 8 Sur 32 Sudoeste 0 1013 -0.7 44
2019-04-13 18:00:00 21.3 9 Sur 26 Sur 0 1013.1 -1 38
2019-04-13 17:00:00 21.3 16 Sudoeste 34 Sur 0 1013.3 -1.1 38
2019-04-13 16:00:00 21.3 15 Sudoeste 30 Sudoeste 0 1013.7 -0.7 39
2019-04-13 15:00:00 20.9 6 Sur 27 Sudoeste 0 1014.1 -0.6 52
2019-04-13 14:00:00 20.9 15 Sur 26 Sur 0 1014.4 -0.2 53
2019-04-13 13:00:00 21.8 11 Sur 23 Sudeste 0 1014.4 0.1 40
2019-04-13 12:00:00 24.6 9 Noroeste 34 Sudoeste 0 1014.7 0.7 14
2019-04-13 11:00:00 23.2 12 Norte 26 Norte 0 1014.6 1.1 16
2019-04-13 10:00:00 21.7 12 Noroeste 28 Norte 0 1014.3 1.3 22
2019-04-13 09:00:00 19.4 11 Norte 25 Norte 0 1014 1.3 26
2019-04-13 08:00:00 16.5 11 Norte 23 Noroeste 0 1013.5 0.6 30
2019-04-13 07:00:00 14 3 Noroeste 11 Oeste 0 1013 -0.4 36
2019-04-13 06:00:00 13.3 5 Oeste 12 Oeste 0 1012.7 -1.1 37
2019-04-13 05:00:00 11.5 3 Sudoeste 7 Norte 0 1012.9 -1.5 67
2019-04-13 04:00:00 11.9 4 Este 8 Sudeste 0 1013.4 -1 61
2019-04-13 03:00:00 12.5 3 Oeste 10 Norte 0 1013.8 -0.3 52
2019-04-13 02:00:00 12.6 3 Noroeste 6 Norte 0 1014.4 0.4 62
2019-04-13 01:00:00 13.8 3 Norte 6 Nordeste 0 1014.4 1 57
2019-04-13 00:00:00 14.2 3 Norte 9 Este 0 1014.1 1.3 53
2019-04-12 23:00:00 15.4 6 Nordeste 9 Nordeste 0 1014 1.7 48
2019-04-12 22:00:00 16.3 2 Nordeste 6 Noroeste 0 1013.4 1 51
2019-04-12 21:00:00 16.7 0 Calma 8 Sudeste 0 1012.8 0.2 50
2019-04-12 20:00:00 18 4 Sur 14 Sudeste 0 1012.3 -0.1 41
2019-04-12 19:00:00 18.7 6 Sudeste 18 Sudeste 0 1012.4 -0.4 41
2019-04-12 18:00:00 19.2 7 Sur 24 Sudoeste 0 1012.6 -0.4 45
2019-04-12 17:00:00 19.8 11 Sudoeste 28 Sudoeste 0 1012.4 -0.9 44
2019-04-12 16:00:00 20.3 12 Sudoeste 33 Sudoeste 0 1012.8 -0.4 46
2019-04-12 15:00:00 19.9 16 Sudoeste 29 Sur 0 1013 -0.7 49
2019-04-12 14:00:00 20.3 11 Sur 23 Sudeste 0 1013.3 -0.2 36
2019-04-12 13:00:00 19.9 13 Sudeste 24 Sudeste 0 1013.2 -0.1 29
2019-04-12 12:00:00 20 11 Sur 24 Sur 0 1013.7 0.3 23
2019-04-12 11:00:00 20.9 7 Norte 23 Norte 0 1013.5 0.4 20
2019-04-12 10:00:00 19.4 6 Noroeste 20 Norte 0 1013.3 0.6 24
2019-04-12 09:00:00 16.7 10 Oeste 16 Oeste 0 1013.4 0.9 30
2019-04-12 08:00:00 12.5 6 Oeste 14 Oeste 0 1013.1 0.6 40
2019-04-12 07:00:00 13.7 6 Sudoeste 12 Sudoeste 0 1012.7 0.4 34
2019-04-12 06:00:00 13.9 6 Sudoeste 17 Oeste 0 1012.5 -0.2 33
2019-04-12 05:00:00 14.9 6 Sudoeste 25 Noroeste 0 1012.5 -0.8 32
2019-04-12 04:00:00 13.1 8 Noroeste 24 Noroeste 0 1012.3 -0.9 34
2019-04-12 03:00:00 12 6 Oeste 10 Noroeste 0 1012.7 -0.5 43
2019-04-12 02:00:00 13.6 2 Sudeste 22 Noroeste 0 1013.3 0.3 37
2019-04-12 01:00:00 14 14 Noroeste 23 Noroeste 0 1013.2 0.6 37
2019-04-12 00:00:00 13.3 8 Noroeste 12 Noroeste 0 1013.2 1.4 47
2019-04-11 23:00:00 14.9 4 Norte 9 Norte 0 1013 1.8 45
2019-04-11 22:00:00 15.9 8 Norte 11 Norte 0 1012.6 1.2 44
2019-04-11 21:00:00 16.4 5 Norte 11 Noroeste 0 1011.8 0.8 45
2019-04-11 20:00:00 16.9 5 Noroeste 23 Sudoeste 0 1011.2 -0.5 46
2019-04-11 19:00:00 19.4 9 Oeste 21 Oeste 0 1011.4 -0.6 36
2019-04-11 18:00:00 18.5 9 Oeste 31 Sudoeste 0 1011 -1.4 35
2019-04-11 17:00:00 17.4 11 Sur 25 Sur 0 1011.7 -0.5 51
2019-04-11 16:00:00 19.4 12 Sudoeste 25 Sur 0 1012 -0.1 45
2019-04-11 15:00:00 19.2 14 Sur 26 Sur 0 1012.4 -0.1 49
2019-04-11 14:00:00 20.4 14 Sur 27 Noroeste 0 1012.2 -0.2 43
2019-04-11 13:00:00 22 11 Noroeste 32 Norte 0 1012.1 -0.4 21
2019-04-11 12:00:00 21 12 Noroeste 32 Noroeste 0 1012.5 0.2 23
2019-04-11 11:00:00 20.1 12 Noroeste 28 Noroeste 0 1012.4 0.9 27
2019-04-11 10:00:00 17.9 11 Norte 26 Noroeste 0 1012.5 1 30
2019-04-11 09:00:00 16 7 Norte 24 Norte 0 1012.3 0.9 34
2019-04-11 08:00:00 14.2 10 Noroeste 38 Noroeste 0 1011.5 0.1 39
2019-04-11 07:00:00 14 16 Noroeste 32 Noroeste 0 1011.5 0.3 40
2019-04-11 06:00:00 12.4 6 Norte 35 Noroeste 0 1011.4 -0.3 47
2019-04-11 05:00:00 13.4 18 Noroeste 29 Noroeste 0 1011.4 -0.6 44
2019-04-11 04:00:00 12.7 16 Noroeste 31 Noroeste 0 1011.2 -0.6 48
2019-04-11 03:00:00 12.7 18 Noroeste 31 Noroeste 0 1011.7 0 52
2019-04-11 02:00:00 13.4 8 Noroeste 26 Norte 0 1012 0.3 48
2019-04-11 01:00:00 14.5 8 Noroeste 24 Noroeste 0 1011.8 0.7 43
2019-04-11 00:00:00 15.6 9 Noroeste 29 Noroeste 0 1011.7 1.2 39
2019-04-10 23:00:00 15.9 22 Noroeste 44 Norte 0 1011.7 2 38
2019-04-10 22:00:00 15.9 18 Norte 36 Noroeste 0 1011.1 2 40
2019-04-10 21:00:00 16.2 22 Norte 42 Norte 0 1010.5 1.7 38
2019-04-10 20:00:00 16.2 19 Este 32 Este 0 1009.7 0.9 43
2019-04-10 19:00:00 16.6 4 Sudeste 12 Sudeste 0 1009.1 0.3 59
2019-04-10 18:00:00 17.1 5 Sudeste 16 Sudeste 0 1008.8 0 57
2019-04-10 17:00:00 16.9 10 Sur 33 Sur 0 1008.8 -0.3 62
2019-04-10 16:00:00 18.7 17 Sudoeste 46 Sudoeste 0 1008.8 -0.8 50
2019-04-10 15:00:00 20 20 Sudoeste 40 Sudoeste 0 1008.8 -1.5 43
2019-04-10 14:00:00 23.6 18 Oeste 38 Oeste 0 1009.1 -1.3 20
2019-04-10 13:00:00 21.8 23 Oeste 39 Oeste 0 1009.6 -0.8 23
2019-04-10 12:00:00 20.8 24 Oeste 46 Oeste 0 1010.3 -0.1 26
2019-04-10 11:00:00 18.9 22 Oeste 40 Oeste 0 1010.4 0.4 30
2019-04-10 10:00:00 15.8 16 Noroeste 33 Noroeste 0 1010.4 0.6 38
2019-04-10 09:00:00 15 8 Noroeste 26 Oeste 0 1010.4 0.6 40
2019-04-10 08:00:00 13 6 Noroeste 20 Noroeste 0 1010 -0.2 51
2019-04-10 07:00:00 12.9 6 Noroeste 25 Oeste 0 1009.8 -0.5 52
2019-04-10 06:00:00 13.6 8 Oeste 22 Oeste 0 1009.8 -0.7 49
2019-04-10 05:00:00 14.2 9 Oeste 20 Sudoeste 0 1010.2 -1.1 46
2019-04-10 04:00:00 14.5 5 Sudoeste 23 Noroeste 0 1010.3 -1 45
2019-04-10 03:00:00 14.4 10 Oeste 24 Oeste 0 1010.5 -0.7 47
2019-04-10 02:00:00 14.5 5 Oeste 24 Noroeste 0 1011.3 0.2 47
2019-04-10 01:00:00 14.7 8 Oeste 17 Oeste 0 1011.3 1 45
2019-04-10 00:00:00 15.6 4 Norte 14 Norte 0 1011.2 1.7 41
2019-04-09 23:00:00 16.7 4 Norte 34 Noroeste 0 1011.1 2.1 36
2019-04-09 22:00:00 17.8 19 Oeste 37 Oeste 0 1010.3 1.5 33
2019-04-09 21:00:00 18.4 14 Noroeste 37 Noroeste 0 1009.5 0.8 30
2019-04-09 20:00:00 20.5 22 Noroeste 44 Oeste 0 1009 0 24
2019-04-09 19:00:00 21.9 26 Noroeste 58 Noroeste 0 1008.8 -0.7 22
2019-04-09 18:00:00 19.8 15 Sudoeste 45 Sudoeste 0 1008.7 -1.5 44
2019-04-09 17:00:00 19.1 17 Sudoeste 40 Sudoeste 0 1009 -1.5 36
2019-04-09 16:00:00 19.3 18 Sudoeste 40 Sudoeste 0 1009.5 -1.7 45
2019-04-09 15:00:00 19.2 19 Sudoeste 37 Sudoeste 0 1010.2 -1.6 46
2019-04-09 14:00:00 22.4 27 Noroeste 52 Noroeste 0 1010.5 -1.5 20
2019-04-09 13:00:00 21.8 30 Noroeste 53 Noroeste 0 1011.2 -0.7 23
2019-04-09 12:00:00 21.1 23 Oeste 54 Oeste 0 1011.8 -0.1 25
2019-04-09 11:00:00 19.6 26 Oeste 51 Oeste 0 1012 0.4 28
2019-04-09 10:00:00 18.2 24 Oeste 42 Oeste 0 1011.9 1.1 32
2019-04-09 09:00:00 16.2 21 Oeste 31 Oeste 0 1011.9 1.7 37
2019-04-09 08:00:00 14.3 15 Oeste 31 Oeste 0 1011.6 1.7 44
2019-04-09 07:00:00 14.3 8 Noroeste 17 Noroeste 0 1010.8 1.3 49
2019-04-09 06:00:00 15.7 10 Noroeste 30 Noroeste 0 1010.2 0.4 44
2019-04-09 05:00:00 16.1 17 Noroeste 43 Noroeste 0 1009.9 0 44
2019-04-09 04:00:00 17.3 22 Noroeste 49 Noroeste 0 1009.5 -0.2 39
2019-04-09 03:00:00 17.5 21 Noroeste 38 Noroeste 0 1009.8 0.5 38
2019-04-09 02:00:00 18.3 23 Noroeste 49 Noroeste 0 1009.9 0.4 32
2019-04-09 01:00:00 19.5 17 Noroeste 42 Noroeste 0 1009.7 0 31
2019-04-09 00:00:00 19.9 24 Noroeste 40 Noroeste 0 1009.3 0.3 38
2019-04-08 23:00:00 19.7 18 Noroeste 37 Norte 0 1009.5 1.1 40
2019-04-08 22:00:00 20.4 20 Noroeste 37 Noroeste 0 1009.7 1 36
2019-04-08 21:00:00 19.6 4 Noroeste 11 Noroeste 0 1009 0.2 49
2019-04-08 20:00:00 19.6 5 Este 13 Sur 0 1008.4 -0.2 56
2019-04-08 19:00:00 20.2 5 Sur 16 Sur 0 1008.7 -0.4 54
2019-04-08 18:00:00 19.8 8 Sudoeste 36 Sudoeste 0 1008.8 -1.2 55
2019-04-08 17:00:00 19.8 17 Sudoeste 41 Sudoeste 0 1008.6 -1.8 55
2019-04-08 16:00:00 20.7 19 Sudoeste 39 Sudoeste 0 1009.1 -2 47
2019-04-08 15:00:00 20.9 12 Sudoeste 36 Sudoeste 0 1010 -1.3 52
2019-04-08 14:00:00 20.8 17 Sudoeste 33 Sudoeste 0 1010.4 -0.6 48
2019-04-08 13:00:00 20.3 14 Sudoeste 43 Oeste 0 1011.1 0 46
2019-04-08 12:00:00 21.9 21 Oeste 44 Oeste 0 1011.3 0 30
2019-04-08 11:00:00 20.5 20 Oeste 37 Oeste 0 1011 0.1 35
2019-04-08 10:00:00 16.7 9 Oeste 18 Oeste 0 1011.1 0.6 54
2019-04-08 09:00:00 14.7 6 Oeste 11 Oeste 0 1011.3 0.7 65
2019-04-08 08:00:00 14 3 Noroeste 9 Norte 0 1010.9 0.1 67
2019-04-08 07:00:00 14 3 Norte 7 Noroeste 0 1010.5 -0.3 67
2019-04-08 06:00:00 14.1 4 Noroeste 13 Noroeste 0 1010.6 -0.5 66
2019-04-08 05:00:00 14.5 8 Noroeste 15 Noroeste 0 1010.8 -1.1 66
2019-04-08 04:00:00 14.8 11 Noroeste 17 Noroeste 0 1010.8 -1.4 65
2019-04-08 03:00:00 15.4 6 Noroeste 13 Noroeste 0 1011.1 -1 62
2019-04-08 02:00:00 15.9 6 Noroeste 13 Noroeste 0 1011.9 -0.2 63
2019-04-08 01:00:00 16.6 6 Oeste 14 Noroeste 0 1012.2 0.3 49
2019-04-08 00:00:00 16.8 5 Norte 16 Norte 0 1012.1 1 45
2019-04-07 23:00:00 17 9 Noroeste 20 Noroeste 0 1012.1 1.5 43
2019-04-07 22:00:00 17.2 10 Noroeste 25 Noroeste 0 1011.9 2.2 42
2019-04-07 21:00:00 18.3 14 Noroeste 33 Oeste 0 1011.1 2.1 34
2019-04-07 20:00:00 19.1 18 Noroeste 41 Noroeste 0 1010.6 1.8 31
2019-04-07 19:00:00 20 24 Oeste 49 Oeste 0 1009.7 1.4 28
2019-04-07 18:00:00 20.7 30 Oeste 49 Oeste 0 1009 0.4 26
2019-04-07 17:00:00 21.3 21 Oeste 47 Oeste 0 1008.8 0.1 24
2019-04-07 16:00:00 23.3 27 Oeste 61 Oeste 0 1008.3 -0.4 21
2019-04-07 15:00:00 21.5 26 Oeste 54 Oeste 0 1008.6 0.3 23
2019-04-07 14:00:00 19.8 28 Oeste 53 Noroeste 0 1008.7 0.8 27
2019-04-07 13:00:00 20.4 30 Oeste 53 Oeste 0 1008.7 1.1 26
2019-04-07 12:00:00 20.2 27 Oeste 48 Oeste 0 1008.3 1.4 26
2019-04-07 11:00:00 18.4 27 Oeste 47 Oeste 0 1007.9 1.7 31
2019-04-07 10:00:00 16.5 28 Oeste 50 Oeste 0 1007.6 2.1 36
2019-04-07 09:00:00 14.5 23 Oeste 46 Oeste 0 1006.9 1.4 39
2019-04-07 08:00:00 12.3 14 Oeste 43 Oeste 0 1006.2 0.7 48
2019-04-07 07:00:00 12.1 23 Oeste 48 Oeste 0 1005.5 0.3 49
2019-04-07 06:00:00 11.4 14 Oeste 30 Oeste 0 1005.5 0.2 53
2019-04-07 05:00:00 10.7 12 Oeste 22 Oeste 0 1005.5 -0.2 54
2019-04-07 04:00:00 11.2 13 Oeste 27 Oeste 0 1005.2 -0.3 52
2019-04-07 03:00:00 12.3 20 Oeste 40 Oeste 0 1005.3 0.1 47
2019-04-07 02:00:00 11.4 13 Oeste 24 Oeste 0 1005.7 0.5 50
2019-04-07 01:00:00 11.5 13 Oeste 39 Oeste 0 1005.5 0.6 52
2019-04-07 00:00:00 11.8 16 Oeste 37 Oeste 0 1005.2 1.1 49
2019-04-06 23:00:00 12.5 20 Oeste 46 Noroeste 0 1005.2 1.5 50
2019-04-06 22:00:00 13.3 21 Oeste 41 Oeste 0 1004.9 2 50
2019-04-06 21:00:00 13.3 17 Oeste 39 Oeste 0 1004.1 2 53
2019-04-06 20:00:00 13.3 21 Oeste 52 Oeste 2.4 1003.7 1.4 60
2019-04-06 19:00:00 15.3 14 Sudoeste 36 Sudoeste 1 1002.9 0.4 60
2019-04-06 18:00:00 16 18 Sudoeste 41 Sudoeste 0 1002.1 -1.4 59
2019-04-06 17:00:00 15.5 23 Sur 45 Sudoeste 0 1002.3 -0.5 52
2019-04-06 16:00:00 16.6 8 Sudoeste 22 Sudoeste 0.2 1002.5 -0.5 51
2019-04-06 15:00:00 15.5 8 Oeste 41 Sudoeste 0.4 1003.5 0.1 56
2019-04-06 14:00:00 17.1 18 Sudoeste 40 Sudoeste 0 1002.8 -0.8 42
2019-04-06 13:00:00 20.3 24 Oeste 51 Noroeste 0 1003 -0.3 22
2019-04-06 12:00:00 19.2 17 Oeste 37 Oeste 0 1003.4 0.3 25
2019-04-06 11:00:00 17 16 Oeste 32 Oeste 0 1003.6 0.8 28
2019-04-06 10:00:00 15.5 23 Oeste 43 Oeste 0 1003.3 1.2 31
2019-04-06 09:00:00 13.1 8 Sudoeste 21 Oeste 0 1003.1 1.5 41
2019-04-06 08:00:00 10.9 10 Oeste 25 Oeste 0 1002.8 2 47
2019-04-06 07:00:00 10.9 15 Oeste 29 Oeste 0 1002.1 1 48
2019-04-06 06:00:00 11.4 17 Oeste 40 Oeste 0 1001.6 0.5 44
2019-04-06 05:00:00 11.2 13 Noroeste 30 Oeste 0 1000.8 -0.7 48
2019-04-06 04:00:00 12 15 Oeste 37 Oeste 0 1001.1 -0.6 43
2019-04-06 03:00:00 10.5 8 Noroeste 16 Oeste 0 1001.1 -0.4 51
2019-04-06 02:00:00 11.4 8 Oeste 23 Oeste 0 1001.5 0.7 44
2019-04-06 01:00:00 11.8 13 Oeste 24 Oeste 0 1001.7 1.6 42
2019-04-06 00:00:00 12.3 15 Oeste 31 Oeste 0 1001.5 2.7 44
2019-04-05 23:00:00 12.4 19 Oeste 41 Oeste 0 1000.8 3.2 40
2019-04-05 22:00:00 13.3 26 Oeste 44 Noroeste 0 1000.1 2.3 36
2019-04-05 21:00:00 14.2 22 Noroeste 42 Noroeste 0 998.8 1.8 35
2019-04-05 20:00:00 15 11 Sudoeste 33 Sudoeste 0 997.6 -0.2 56
2019-04-05 19:00:00 14.4 15 Sudoeste 35 Sudoeste 0 997.8 0.1 60
2019-04-05 18:00:00 15.3 9 Sudoeste 35 Oeste 0 997 -0.1 48
2019-04-05 17:00:00 15.1 18 Oeste 57 Oeste 0.2 997.8 0.3 58
2019-04-05 16:00:00 17.1 25 Noroeste 57 Noroeste 0 997.7 -1 41
2019-04-05 15:00:00 17.3 26 Sudoeste 71 Sudoeste 0 997.1 -2.5 51
2019-04-05 14:00:00 18.7 12 Sur 33 Sudoeste 0 997.5 -2.1 44
2019-04-05 13:00:00 18 10 Sur 28 Sur 0 998.7 -0.8 37
2019-04-05 12:00:00 17.3 13 Sudoeste 21 Sur 0 999.6 0 40
2019-04-05 11:00:00 17.6 7 Sudoeste 18 Oeste 0 999.6 0.2 36
2019-04-05 10:00:00 17.2 7 Oeste 15 Oeste 0 999.5 0.2 45
2019-04-05 09:00:00 13 5 Oeste 8 Oeste 0 999.6 0.5 71
2019-04-05 08:00:00 10.7 5 Noroeste 8 Norte 0 999.4 0 78
2019-04-05 07:00:00 11.2 4 Noroeste 8 Noroeste 0 999.3 -0.4 80
2019-04-05 06:00:00 12.2 0 Calma 9 Norte 0 999.1 -1.3 76
2019-04-05 05:00:00 13 5 Noroeste 8 Noroeste 0 999.4 -1.3 75
2019-04-05 04:00:00 14.3 3 Norte 8 Oeste 0 999.7 -1.3 71
2019-04-05 03:00:00 14.4 5 Oeste 15 Sudoeste 0 1000.4 -0.8 71
2019-04-05 02:00:00 14.8 4 Sur 12 Sudoeste 0 1000.7 -0.6 68
2019-04-05 01:00:00 14.9 5 Sur 15 Sur 0 1001 -0.1 64
2019-04-05 00:00:00 15 6 Sur 15 Sur 0 1001.2 0.3 60
2019-04-04 23:00:00 15 7 Sur 16 Sur 0 1001.3 0.3 55
2019-04-04 22:00:00 15.1 8 Sur 15 Sur 0 1001.1 0.2 54
2019-04-04 21:00:00 15 9 Sur 18 Sudeste 0 1000.9 -0.1 51
2019-04-04 20:00:00 15.2 11 Sur 20 Sur 0 1001 0.1 52
2019-04-04 19:00:00 15.7 9 Sudeste 22 Sudeste 0 1000.9 -0.3 52
2019-04-04 18:00:00 16.2 13 Sudeste 23 Sudeste 0 1001 -0.6 50
2019-04-04 17:00:00 16.4 11 Sudeste 25 Sur 0 1000.9 -1.3 50
2019-04-04 16:00:00 17.1 13 Sudeste 27 Sudeste 0 1001.2 -1.4 48
2019-04-04 15:00:00 17.5 13 Sudeste 30 Sudeste 0 1001.6 -0.7 47
2019-04-04 14:00:00 17.4 13 Sudeste 25 Sudeste 0 1002.2 0.4 48
2019-04-04 13:00:00 14.8 12 Sudeste 25 Sudeste 0 1002.6 1.1 56
2019-04-04 12:00:00 15.6 15 Sudeste 27 Sudeste 0 1002.3 1.1 54
2019-04-04 11:00:00 16.6 13 Sudeste 26 Este 0 1001.8 1.5 50
2019-04-04 10:00:00 15.8 9 Este 20 Este 0 1001.5 1.9 54
2019-04-04 09:00:00 14.1 6 Nordeste 12 Este 0 1001.2 2.3 61
2019-04-04 08:00:00 12.6 7 Nordeste 14 Nordeste 0 1000.3 1.9 70
2019-04-04 07:00:00 13.1 10 Este 24 Este 0 999.6 2 71
2019-04-04 06:00:00 13.6 16 Este 33 Este 0 998.9 1.4 74
2019-04-04 05:00:00 14.3 20 Este 39 Este 0 998.4 0.8 68
2019-04-04 04:00:00 13.7 7 Norte 12 Este 0 997.6 -0.3 63
2019-04-04 03:00:00 14.1 5 Noroeste 10 Norte 0 997.5 -0.3 69
2019-04-04 02:00:00 14.6 2 Sudeste 9 Nordeste 0 997.6 -0.1 79
2019-04-04 01:00:00 14.9 3 Nordeste 10 Sudeste 0 997.9 0.7 82
2019-04-04 00:00:00 15.6 5 Sur 10 Sur 0 997.8 1.2 81
2019-04-03 23:00:00 16.4 2 Oeste 9 Sur 0 997.7 1.3 70
2019-04-03 22:00:00 16.3 3 Noroeste 10 Este 0 997.2 0.3 71
2019-04-03 21:00:00 17.2 8 Este 14 Este 0 996.6 -1.2 67
2019-04-03 20:00:00 18.7 5 Sudeste 13 Sudoeste 0 996.4 -2.7 59
2019-04-03 19:00:00 20 3 Sur 14 Sudoeste 0 996.9 -3.6 55
2019-04-03 18:00:00 19.8 7 Sur 19 Sudoeste 0 997.8 -3.8 58
2019-04-03 17:00:00 20 5 Sudoeste 21 Sur 0 999.1 -3.8 59
2019-04-03 16:00:00 20.6 7 Sudoeste 23 Sudoeste 0 1000.5 -3.2 56
2019-04-03 15:00:00 19.6 7 Sur 26 Sudoeste 0 1001.6 -2.8 61
2019-04-03 14:00:00 18.5 15 Sur 26 Sudoeste 0 1002.9 -1.8 67
2019-04-03 13:00:00 18.6 12 Sur 19 Sur 0 1003.7 -1.6 63
2019-04-03 12:00:00 18.5 9 Sur 15 Sudeste 0 1004.4 -1.5 55
2019-04-03 11:00:00 18.3 6 Sur 12 Sur 0 1004.7 -1.3 65
2019-04-03 10:00:00 17.2 4 Sur 8 Sur 0 1005.3 -1 70
2019-04-03 09:00:00 13.5 0 Calma 5 Nordeste 0 1005.9 -0.9 77
2019-04-03 08:00:00 10.9 0 Calma 6 Norte 0 1006 -1.3 82
2019-04-03 07:00:00 11.6 2 Este 5 Nordeste 0 1006.3 -1.7 80
2019-04-03 06:00:00 12.6 4 Norte 8 Norte 0 1006.8 -2.2 77
2019-04-03 05:00:00 12.6 4 Norte 7 Noroeste 0 1007.3 -2 79
2019-04-03 04:00:00 12.9 5 Sudoeste 12 Sudoeste 0 1008 -1.6 80
2019-04-03 03:00:00 13.3 4 Nordeste 9 Nordeste 0 1009 -0.8 81
2019-04-03 02:00:00 13.8 4 Norte 7 Norte 0 1009.3 -0.6 79
2019-04-03 01:00:00 14.2 0 Calma 6 Norte 0 1009.6 -0.1 80
2019-04-03 00:00:00 15 2 Nordeste 12 Este 0 1009.8 0.4 79
2019-04-02 23:00:00 15.4 6 Este 10 Este 0 1009.9 0.5 78
2019-04-02 22:00:00 15.7 4 Este 8 Este 0 1009.7 0.3 73
2019-04-02 21:00:00 16 5 Este 11 Este 0 1009.4 -0.1 72
2019-04-02 20:00:00 16.9 9 Sudeste 15 Sudeste 0 1009.4 -0.9 67
2019-04-02 19:00:00 18.3 5 Sur 16 Sudoeste 0 1009.4 -1.3 59
2019-04-02 18:00:00 19 5 Sudoeste 16 Sudoeste 0 1009.5 -1.9 53
2019-04-02 17:00:00 18.3 8 Sur 17 Sur 0 1010.3 -1.9 66
2019-04-02 16:00:00 19 8 Sur 16 Sudeste 0 1010.7 -1.9 63
2019-04-02 15:00:00 19.1 8 Sur 20 Sur 0 1011.4 -1.6 59
2019-04-02 14:00:00 18.6 10 Sur 21 Sudoeste 0 1012.2 -0.8 64
2019-04-02 13:00:00 18.7 10 Sudoeste 20 Sur 0 1012.6 -0.2 62
2019-04-02 12:00:00 18.6 9 Sur 18 Sudoeste 0 1013 0.1 58
2019-04-02 11:00:00 18.4 7 Sur 13 Sudoeste 0 1013 0.5 62
2019-04-02 10:00:00 16.9 6 Noroeste 14 Noroeste 0 1012.8 0.3 65
2019-04-02 09:00:00 14.8 0 Calma 6 Nordeste 0 1012.9 0.6 80
2019-04-02 08:00:00 12.7 0 Calma 5 Noroeste 0 1012.5 -0.2 83
2019-04-02 07:00:00 13.2 3 Norte 9 Norte 0 1012.5 -0.5 83
2019-04-02 06:00:00 14.3 4 Norte 9 Norte 0 1012.3 -1 83
2019-04-02 05:00:00 15.1 4 Norte 9 Este 0 1012.7 -1 84
2019-04-02 04:00:00 15.2 4 Sudeste 12 Sur 0 1013 -0.8 84
2019-04-02 03:00:00 15.2 7 Sudeste 17 Este 0.4 1013.3 -0.3 84
2019-04-02 02:00:00 15.4 8 Este 21 Sudeste 0 1013.7 0.3 81
2019-04-02 01:00:00 15.5 11 Sudeste 19 Sudeste 0 1013.8 1.1 79
2019-04-02 00:00:00 15.4 7 Este 15 Este 0 1013.6 1.5 80
2019-04-01 23:00:00 15.5 10 Este 17 Este 0 1013.4 2 79
2019-04-01 22:00:00 15.7 12 Este 21 Este 0 1012.7 1.4 78
2019-04-01 21:00:00 15.9 10 Este 18 Este 0 1012.1 0.8 77
2019-04-01 20:00:00 15.9 12 Sudeste 19 Sudeste 0 1011.4 0.1 77
2019-04-01 19:00:00 16.2 9 Sudeste 19 Sudeste 0 1011.3 0.3 78
2019-04-01 18:00:00 16.6 11 Sudeste 17 Sudeste 0 1011.3 0 75
2019-04-01 17:00:00 18.1 9 Sudeste 21 Sur 0 1011.3 -0.3 67
2019-04-01 16:00:00 18.2 10 Sur 22 Sur 0 1011 -1 66
2019-04-01 15:00:00 18.3 10 Sur 19 Sur 0 1011.3 -0.8 64
2019-04-01 14:00:00 17.9 9 Sudeste 19 Sudeste 0 1011.6 0 65
2019-04-01 13:00:00 18 9 Sur 19 Sudeste 0 1012 1 65
2019-04-01 12:00:00 17.5 10 Sur 17 Sur 0 1012.1 1.8 68
2019-04-01 11:00:00 17.6 6 Sur 14 Sur 0 1011.6 1.9 65
2019-04-01 10:00:00 17.3 6 Oeste 12 Noroeste 0 1011 1.9 67
2019-04-01 09:00:00 14.1 4 Noroeste 7 Noroeste 0 1010.3 1.4 79
2019-04-01 08:00:00 13.6 3 Oeste 5 Noroeste 0 1009.7 0.7 81
2019-04-01 07:00:00 13.9 0 Calma 4 Nordeste 0 1009.1 0.2 80
2019-04-01 06:00:00 14.3 2 Este 8 Este 0 1008.9 0 77
2019-04-01 05:00:00 14.4 6 Noroeste 11 Noroeste 0 1009 -0.1 72
2019-04-01 04:00:00 14.7 4 Noroeste 9 Norte 0 1008.9 0 72
2019-04-01 03:00:00 14.8 5 Norte 10 Norte 0 1008.9 0.1 70
2019-04-01 02:00:00 14.7 3 Norte 10 Norte 0 1009.1 0.5 72
2019-04-01 01:00:00 14.2 3 Norte 7 Nordeste 0 1008.9 0.6 76
2019-04-01 00:00:00 14.3 0 Calma 8 Norte 0 1008.8 1.5 78
2019-03-31 23:00:00 14.3 3 Norte 9 Norte 0 1008.6 1.5 75
2019-03-31 22:00:00 14.5 3 Norte 14 Noroeste 0 1008.3 1.4 72
2019-03-31 21:00:00 14.3 5 Norte 18 Noroeste 0 1007.3 0.4 74
2019-03-31 20:00:00 14 6 Noroeste 15 Noroeste 0.2 1007.1 0.3 78
2019-03-31 19:00:00 14.8 3 Noroeste 15 Nordeste 0.4 1006.9 0 76
2019-03-31 18:00:00 14.8 6 Nordeste 29 Este 0 1006.9 -0.6 69
2019-03-31 17:00:00 15.1 14 Nordeste 27 Nordeste 0 1006.8 -1.4 68
2019-03-31 16:00:00 15.4 12 Nordeste 29 Nordeste 0 1006.9 -2 66
2019-03-31 15:00:00 15 20 Nordeste 37 Nordeste 0.2 1007.5 -2 68
2019-03-31 14:00:00 14.7 14 Nordeste 30 Este 0 1008.2 -1.5 70
2019-03-31 13:00:00 13.9 6 Nordeste 19 Este 0 1008.9 -0.8 75
2019-03-31 12:00:00 12.5 4 Noroeste 10 Noroeste 1.2 1009.5 -0.1 82
2019-03-31 11:00:00 12.3 4 Noroeste 13 Noroeste 1.8 1009.7 0 85
2019-03-31 10:00:00 12.2 7 Oeste 12 Noroeste 0.6 1009.7 -0.3 84
2019-03-31 09:00:00 11.9 6 Noroeste 14 Noroeste 0.6 1009.6 -0.9 83
2019-03-31 08:00:00 11.8 4 Noroeste 6 Noroeste 0 1009.7 -1.3 84
2019-03-31 07:00:00 11.6 0 Calma 7 Sudoeste 0.4 1010 -1.5 82
2019-03-31 06:00:00 11.9 0 Calma 14 Oeste 1.6 1010.5 -1.9 80
2019-03-31 05:00:00 12.9 6 Sur 10 Sur 0.8 1011 -3 79
2019-03-31 03:00:00 13.1 5 Nordeste 17 Nordeste 0.8 1012.4 -2.9 73
2019-03-31 01:00:00 13.2 6 Nordeste 15 Nordeste 0.6 1014 -0.9 73
2019-03-31 00:00:00 14.3 7 Nordeste 16 Nordeste 0 1015 0.6 59
2019-03-30 23:00:00 14.2 6 Este 23 Este 0 1015.3 1.2 59
2019-03-30 22:00:00 14.4 15 Este 26 Este 0 1014.9 0.9 56
2019-03-30 21:00:00 14.7 13 Este 28 Este 0 1014.4 0 51
2019-03-30 20:00:00 15.4 15 Este 32 Este 0 1014.1 -0.6 48
2019-03-30 19:00:00 16.2 15 Este 26 Este 0 1014 -1 47
2019-03-30 18:00:00 16.4 15 Este 37 Este 0 1014.4 -0.7 56
2019-03-30 17:00:00 17 19 Sudeste 40 Sudeste 0 1014.7 -1 56
2019-03-30 16:00:00 17.7 23 Sudeste 43 Sudeste 0 1015 -1.8 53
2019-03-30 15:00:00 18.4 23 Sudeste 40 Sudeste 0 1015.1 -2.8 45
2019-03-30 14:00:00 18.6 22 Sudeste 39 Sudeste 0 1015.7 -3 47
2019-03-30 13:00:00 18.4 21 Este 39 Sudeste 0 1016.8 -2 47
2019-03-30 12:00:00 17.2 22 Sudeste 36 Sudeste 0 1017.9 -1.1 50
2019-03-30 11:00:00 18 16 Este 34 Nordeste 0 1018.7 -0.1 44
2019-03-30 10:00:00 16.5 15 Este 31 Este 0 1018.8 -0.2 49
2019-03-30 09:00:00 14.7 9 Este 20 Este 0 1019 0.2 56
2019-03-30 08:00:00 13.5 7 Este 17 Nordeste 0 1018.8 -0.1 61
2019-03-30 07:00:00 10.3 6 Norte 8 Norte 0 1019 -0.2 71
2019-03-30 06:00:00 10.3 6 Norte 9 Norte 0 1018.8 -0.8 71
2019-03-30 05:00:00 10.9 4 Norte 11 Norte 0 1018.9 -1.9 69
2019-03-30 04:00:00 12.3 3 Nordeste 15 Nordeste 0 1019.2 -1.9 65
2019-03-30 03:00:00 12.7 7 Nordeste 14 Nordeste 0 1019.6 -1.8 65
2019-03-30 02:00:00 12.1 3 Norte 11 Nordeste 0 1020.8 -0.9 65
2019-03-30 01:00:00 12.6 4 Norte 15 Nordeste 0 1021.1 -0.6 62
2019-03-30 00:00:00 13.1 5 Nordeste 17 Nordeste 0 1021.4 0.1 58
2019-03-29 23:00:00 13.3 5 Nordeste 21 Nordeste 0 1021.7 1.2 55
2019-03-29 22:00:00 13.6 9 Nordeste 17 Nordeste 0 1021.7 1.9 53
2019-03-29 21:00:00 13.8 9 Este 24 Este 0 1021.3 1.8 54
2019-03-29 20:00:00 14.5 14 Este 34 Este 0 1020.5 1 53
2019-03-29 19:00:00 15.5 18 Este 42 Este 0 1019.8 -0.3 49
2019-03-29 18:00:00 16.6 24 Este 41 Este 0 1019.5 -1 47
2019-03-29 17:00:00 16.4 21 Sudeste 41 Sudeste 0 1019.5 -1.7 55
2019-03-29 16:00:00 17.4 25 Sudeste 42 Este 0 1020.1 -1.6 48
2019-03-29 15:00:00 16.8 27 Sudeste 45 Sudeste 0 1020.5 -1.6 49
2019-03-29 14:00:00 17.3 26 Sudeste 44 Sudeste 0 1021.2 -1.7 47
2019-03-29 13:00:00 17.8 24 Sudeste 42 Sudeste 0 1021.7 -1.5 47
2019-03-29 12:00:00 18.8 21 Este 41 Este 0 1022.1 -0.6 39
2019-03-29 11:00:00 17.1 21 Este 40 Este 0 1022.9 0.5 41
2019-03-29 10:00:00 16.9 21 Este 37 Sudeste 0 1023.2 0.9 46
2019-03-29 09:00:00 15.4 19 Este 33 Este 0 1022.7 0.4 53
2019-03-29 08:00:00 14 13 Nordeste 27 Nordeste 0 1022.4 0.6 59
2019-03-29 07:00:00 12.6 12 Nordeste 23 Nordeste 0 1022.3 0.6 63
2019-03-29 06:00:00 11.7 4 Este 13 Nordeste 0 1022.3 0.2 63
2019-03-29 05:00:00 12.7 6 Nordeste 20 Nordeste 0 1021.8 -0.9 57
2019-03-29 04:00:00 12.4 6 Nordeste 17 Este 0 1021.7 -1.3 58
2019-03-29 03:00:00 12.5 7 Nordeste 17 Este 0 1022.1 -1 60
2019-03-29 02:00:00 11.9 4 Nordeste 11 Nordeste 0 1022.7 -0.7 57
2019-03-29 01:00:00 11 2 Norte 6 Norte 0 1023 -0.8 55
2019-03-29 00:00:00 11.4 3 Nordeste 9 Norte 0 1023.1 -0.4 54
2019-03-28 23:00:00 11.2 6 Norte 10 Norte 0 1023.4 0.6 54
2019-03-28 22:00:00 12.7 3 Nordeste 9 Nordeste 0 1023.8 1.3 66
2019-03-28 21:00:00 13.7 4 Nordeste 17 Este 0 1023.5 1.4 63
2019-03-28 20:00:00 14.3 8 Este 23 Este 0 1022.8 0.7 57
2019-03-28 19:00:00 15.1 14 Este 28 Este 0 1022.5 0.3 52
2019-03-28 18:00:00 16.2 18 Este 34 Este 0 1022.1 -0.6 54
2019-03-28 17:00:00 17.5 16 Este 34 Este 0 1022.1 -1.1 47
2019-03-28 16:00:00 17 21 Sudeste 40 Sudeste 0 1022.2 -1.5 49
2019-03-28 15:00:00 16.8 24 Sudeste 36 Sudeste 0 1022.7 -1.3 44
2019-03-28 14:00:00 17.6 18 Sudeste 36 Sudeste 0 1023.2 -1.1 42
2019-03-28 13:00:00 17.5 20 Sudeste 33 Sudeste 0 1023.7 -0.4 35
2019-03-28 12:00:00 19 18 Este 33 Este 0 1024 0.3 19
2019-03-28 11:00:00 19.2 17 Este 30 Sudeste 0 1024.3 1 18
2019-03-28 10:00:00 17.2 8 Sur 17 Sur 0 1024.1 1.2 27
2019-03-28 09:00:00 16.2 3 Oeste 6 Oeste 0 1023.7 1 27
2019-03-28 08:00:00 11.3 3 Norte 9 Noroeste 0 1023.3 1.1 38
2019-03-28 07:00:00 9 5 Norte 10 Norte 0 1022.9 0.7 43
2019-03-28 06:00:00 9.1 5 Norte 10 Norte 0 1022.7 0.2 46
2019-03-28 05:00:00 9.5 5 Norte 10 Norte 0 1022.2 -0.6 48
2019-03-28 04:00:00 9.9 3 Norte 9 Norte 0 1022.2 -0.8 51
2019-03-28 03:00:00 11 4 Norte 13 Norte 0 1022.5 -0.5 51
2019-03-28 02:00:00 11.6 6 Nordeste 11 Nordeste 0 1022.8 -0.1 54
2019-03-28 01:00:00 12 5 Norte 13 Nordeste 0 1023 0.3 52
2019-03-28 00:00:00 12.1 5 Nordeste 13 Nordeste 0 1023 0.9 54
2019-03-27 23:00:00 11.5 3 Norte 10 Norte 0 1022.9 1.9 56
2019-03-27 22:00:00 12.8 3 Norte 11 Nordeste 0 1022.7 2.7 52
2019-03-27 21:00:00 13.5 8 Este 24 Nordeste 0 1022.1 2.7 48
2019-03-27 20:00:00 14.4 17 Este 31 Este 0 1021 2 47
2019-03-27 19:00:00 15.5 19 Este 39 Este 0 1020 1 43
2019-03-27 18:00:00 16.8 20 Este 38 Este 0 1019.4 0.3 44
2019-03-27 17:00:00 17.7 23 Sudeste 41 Sudeste 0 1019 -0.4 42
2019-03-27 16:00:00 17 26 Sudeste 41 Este 0 1019 -0.5 49
2019-03-27 15:00:00 18.9 22 Este 43 Este 0 1019.1 -0.6 38
2019-03-27 14:00:00 19.1 21 Este 46 Sudeste 0 1019.4 -0.4 37
2019-03-27 13:00:00 18.5 25 Este 49 Este 0 1019.5 0 33
2019-03-27 12:00:00 18.4 24 Este 46 Este 0 1019.7 0.3 32
2019-03-27 11:00:00 17.1 25 Este 46 Sudeste 0 1019.8 0.5 31
2019-03-27 10:00:00 16.1 23 Este 38 Este 0 1019.5 0.4 35
2019-03-27 09:00:00 15 17 Nordeste 30 Nordeste 0 1019.4 0.4 43
2019-03-27 08:00:00 13.6 10 Nordeste 24 Nordeste 0 1019.3 0.6 49
2019-03-27 07:00:00 12.3 11 Nordeste 24 Nordeste 0 1019.1 0.4 52
2019-03-27 06:00:00 12.1 6 Nordeste 22 Nordeste 0 1019 -0.1 52
2019-03-27 05:00:00 12.3 11 Nordeste 22 Nordeste 0 1018.7 -0.7 52
2019-03-27 04:00:00 12.4 8 Nordeste 23 Nordeste 0 1018.7 -0.6 52
2019-03-27 03:00:00 12.6 11 Nordeste 27 Nordeste 0 1019.1 -0.2 51
2019-03-27 02:00:00 13 12 Nordeste 30 Nordeste 0 1019.4 0.5 51
2019-03-27 01:00:00 13 10 Nordeste 25 Nordeste 0 1019.3 1.8 49
2019-03-27 00:00:00 13.4 13 Nordeste 26 Este 0 1019.3 2.5 47